Clear Creek, West Virginia
Current Conditions -  °F | °C
As of 3:51 AM on Monday 24 Nov 2014 (Local Time) from KBKW Reporting Station
Overcast Overcast  
Wind Chill: 58°   Ceiling: 5500
Heat Index: 58°   Visibility: 10mi
Dew Point: 48°   Wind: 17mph
Humidity: 70%   Direction: 220°SW
Pressure: 29.61"   Gusts: 26mph
Location:  37.92°N, 81.34°W
Report Text: KBKW 240851Z AUTO 22015G23KT 10SM OVC055 14/09 A2961 RMK AO2 SLP017 T01440089 53010
Loading
Personal Weather Stations






























Interactive Weather Map New forecast layout! Learn more

10-Day Weather Forecast

Advertisements
Track Severe Weather on mobile